Time;durP1;ratioP1;P1;durP2;ratioP2;P2;SDS_P1;SDS_P2;PMS_P1;PMS_P2;Temp;Humidity;BMP_temperature;BMP_pressure;BME280_temperature;BME280_humidity;BME280_pressure;Samples;Min_cycle;Max_cycle;Signal;HPM_P1;HPM_P2
2022/12/11 00:00:00;;;;;;;25.83;15.77;;;;;;;3.10;95.29;97765.84;4469833;32;34644;-76
2022/12/11 00:02:30;;;;;;;30.20;16.87;;;;;;;3.02;96.19;97760.91;4469798;32;33915;-75
2022/12/11 00:04:58;;;;;;;29.00;16.85;;;;;;;2.93;96.63;97755.19;4469414;32;33951;-76
2022/12/11 00:07:25;;;;;;;29.87;16.85;;;;;;;2.61;96.60;97744.31;4469696;32;33790;-76
2022/12/11 00:09:53;;;;;;;31.10;16.95;;;;;;;2.93;96.47;97746.34;4462261;32;33909;-76
2022/12/11 00:12:20;;;;;;;28.92;16.92;;;;;;;3.38;94.10;97746.06;4462708;32;33592;-76
2022/12/11 00:14:48;;;;;;;29.87;16.67;;;;;;;2.74;95.79;97735.91;4454149;32;34734;-77
2022/12/11 00:17:15;;;;;;;30.52;16.83;;;;;;;2.83;96.27;97747.00;4455905;32;34309;-74
2022/12/11 00:19:43;;;;;;;28.95;16.30;;;;;;;2.61;96.24;97749.66;4459671;32;34562;-75
2022/12/11 00:22:10;;;;;;;28.02;16.58;;;;;;;2.74;95.18;97746.63;4456157;32;34346;-77
2022/12/11 00:24:38;;;;;;;31.42;17.20;;;;;;;2.62;96.66;97751.28;4454188;32;34520;-76
2022/12/11 00:27:06;;;;;;;28.00;15.63;;;;;;;2.50;96.36;97750.56;4457151;32;35090;-78
2022/12/11 00:29:34;;;;;;;32.03;17.15;;;;;;;2.58;95.52;97744.81;4459327;32;33987;-74
2022/12/11 00:32:01;;;;;;;29.25;15.75;;;;;;;2.63;94.56;97747.53;4452681;32;33665;-76
2022/12/11 00:34:29;;;;;;;30.88;16.83;;;;;;;2.63;95.10;97755.56;4458904;32;34875;-79
2022/12/11 00:36:57;;;;;;;29.17;16.50;;;;;;;2.43;96.01;97743.53;4458234;32;33872;-77
2022/12/11 00:39:25;;;;;;;28.75;16.80;;;;;;;2.49;96.04;97749.78;4461739;32;33643;-77
2022/12/11 00:41:53;;;;;;;31.15;15.75;;;;;;;2.17;97.83;97747.69;4455472;32;33020;-75
2022/12/11 00:44:21;;;;;;;27.00;15.93;;;;;;;2.41;95.89;97758.22;4463709;32;33961;-75
2022/12/11 00:46:49;;;;;;;25.88;16.37;;;;;;;2.51;96.15;97754.88;4462343;32;34166;-78
2022/12/11 00:49:17;;;;;;;29.08;15.80;;;;;;;2.54;95.91;97757.88;4457538;32;35334;-78
2022/12/11 00:51:44;;;;;;;27.80;16.12;;;;;;;2.45;95.66;97756.66;4461505;32;33467;-78
2022/12/11 00:54:11;;;;;;;27.92;15.80;;;;;;;2.03;98.00;97763.25;4454581;32;33781;-78
2022/12/11 00:56:39;;;;;;;30.08;16.30;;;;;;;2.06;97.96;97764.62;4469122;32;33803;-76
2022/12/11 00:59:06;;;;;;;25.05;14.87;;;;;;;2.18;95.66;97757.34;4469283;32;34702;-79
2022/12/11 01:01:34;;;;;;;27.98;16.00;;;;;;;2.13;97.46;97759.91;4468037;32;33351;-78
2022/12/11 01:04:02;;;;;;;29.35;15.88;;;;;;;2.23;95.17;97760.09;4469412;32;33682;-78
2022/12/11 01:06:29;;;;;;;25.48;15.48;;;;;;;2.37;94.83;97757.06;4466277;32;34664;-77
2022/12/11 01:11:43;;;;;;;27.92;15.77;;;;;;;2.61;93.85;97755.84;4469030;32;34114;-77
2022/12/11 01:14:11;;;;;;;28.42;15.82;;;;;;;2.13;95.47;97765.25;4468845;32;33351;-77
2022/12/11 01:16:38;;;;;;;28.05;16.05;;;;;;;1.83;98.44;97769.03;4466226;32;34706;-76
2022/12/11 01:19:06;;;;;;;25.60;15.02;;;;;;;1.68;97.06;97771.44;4462769;32;34049;-78
2022/12/11 01:21:34;;;;;;;26.08;15.38;;;;;;;2.21;95.29;97766.75;4452091;32;33512;-77
2022/12/11 01:24:01;;;;;;;25.37;15.85;;;;;;;2.72;92.89;97769.34;4444623;32;34470;-77
2022/12/11 01:26:29;;;;;;;24.15;13.93;;;;;;;2.69;90.88;97777.88;4442087;32;33792;-77
2022/12/11 01:28:57;;;;;;;27.10;15.25;;;;;;;2.19;94.23;97776.88;4468439;32;34857;-77
2022/12/11 01:31:24;;;;;;;24.02;14.05;;;;;;;2.77;90.89;97786.31;4468209;32;33619;-76
2022/12/11 01:33:55;;;;;;;24.58;14.18;;;;;;;1.99;95.02;97782.72;4468602;32;34688;-76
2022/12/11 01:36:22;;;;;;;24.55;15.15;;;;;;;2.28;94.00;97786.09;4468481;32;34143;-77
2022/12/11 01:38:50;;;;;;;23.30;14.25;;;;;;;2.30;93.48;97788.56;4467452;32;34045;-78
2022/12/11 01:41:18;;;;;;;23.75;14.13;;;;;;;1.92;94.32;97782.03;4446232;32;33844;-78
2022/12/11 01:43:56;;;;;;;24.95;15.20;;;;;;;1.93;94.69;97789.81;4468185;32;34072;-76
2022/12/11 01:46:25;;;;;;;24.40;14.68;;;;;;;2.05;93.47;97777.19;4455120;32;35051;-78
2022/12/11 01:48:53;;;;;;;24.77;14.70;;;;;;;2.08;92.57;97785.78;4470581;32;33972;-77
2022/12/11 01:51:21;;;;;;;21.85;13.45;;;;;;;2.42;91.28;97784.75;4456411;32;34392;-77
2022/12/11 01:53:57;;;;;;;20.58;13.43;;;;;;;2.15;90.91;97789.09;4466605;32;33939;-78
2022/12/11 01:56:24;;;;;;;5.00;3.15;;;;;;;2.39;90.63;97803.94;4456369;32;35063;-78
2022/12/11 01:58:55;;;;;;;22.00;14.13;;;;;;;1.74;94.32;97791.09;4453181;32;33992;-77
2022/12/11 02:01:32;;;;;;;21.30;12.43;;;;;;;2.17;90.78;97793.16;4453897;32;33367;-78
2022/12/11 02:04:00;;;;;;;19.30;11.40;;;;;;;2.30;90.07;97788.56;4454485;32;34489;-78
2022/12/11 02:06:40;;;;;;;20.88;12.25;;;;;;;2.43;89.58;97794.38;4456573;32;34218;-77
2022/12/11 02:09:11;;;;;;;20.62;12.25;;;;;;;1.56;92.74;97795.56;4464958;32;34664;-78
2022/12/11 02:11:51;;;;;;;19.37;12.25;;;;;;;1.51;94.11;97784.81;4470588;32;33536;-78
2022/12/11 02:14:37;;;;;;;17.25;11.48;;;;;;;1.75;92.75;97788.16;4458662;32;33686;-78
2022/12/11 02:17:16;;;;;;;19.37;11.45;;;;;;;1.73;93.21;97792.13;4452174;32;34621;-78
2022/12/11 02:19:48;;;;;;;21.48;11.75;;;;;;;1.44;95.22;97800.13;4470247;32;34019;-78
2022/12/11 02:22:42;;;;;;;18.42;11.48;;;;;;;1.80;93.31;97785.59;4456629;32;33710;-78
2022/12/11 02:25:41;;;;;;;18.98;11.80;;;;;;;1.72;91.59;97785.97;4440654;32;34484;-77
2022/12/11 02:28:21;;;;;;;18.12;10.70;;;;;;;1.89;91.78;97783.31;4416541;32;34169;-78
2022/12/11 02:31:08;;;;;;;20.50;11.68;;;;;;;1.95;90.26;97782.37;4455186;32;33966;-76
2022/12/11 02:33:44;;;;;;;19.40;12.65;;;;;;;1.58;92.71;97790.81;4454031;32;34455;-77
2022/12/11 02:36:12;;;;;;;19.12;12.02;;;;;;;1.75;92.62;97787.34;4469761;32;33916;-78
2022/12/11 02:38:41;;;;;;;16.70;11.23;;;;;;;1.19;94.68;97773.75;4452885;32;34035;-78
2022/12/11 02:41:10;;;;;;;18.92;12.52;;;;;;;1.55;93.07;97766.41;4470375;32;33936;-78
2022/12/11 02:43:38;;;;;;;21.02;12.65;;;;;;;1.53;93.06;97765.84;4470281;32;34341;-78
2022/12/11 02:46:06;;;;;;;18.48;12.27;;;;;;;1.00;95.05;97765.88;4456093;32;34762;-78
2022/12/11 02:48:35;;;;;;;22.20;12.80;;;;;;;1.48;94.05;97760.41;4429045;32;34219;-75
2022/12/11 02:51:04;;;;;;;23.02;13.07;;;;;;;1.51;92.12;97759.91;4440750;32;34753;-78
2022/12/11 02:53:34;;;;;;;25.88;14.45;;;;;;;1.03;96.55;97768.06;4469499;32;33548;-77
2022/12/11 02:56:12;;;;;;;23.95;14.10;;;;;;;1.16;94.63;97769.66;4470008;32;33663;-77
2022/12/11 02:58:46;;;;;;;24.45;13.80;;;;;;;1.22;94.77;97773.25;4455201;32;35293;-77
2022/12/11 03:01:13;;;;;;;23.75;13.32;;;;;;;1.29;95.69;97765.13;4456197;32;33664;-78
2022/12/11 03:03:41;;;;;;;25.15;14.50;;;;;;;1.05;94.87;97765.19;4431599;32;33548;-78
2022/12/11 03:06:13;;;;;;;4.85;3.03;;;;;;;1.31;95.47;97765.69;4450503;32;33539;-78
2022/12/11 03:08:40;;;;;;;22.95;14.07;;;;;;;1.03;95.31;97765.41;4456321;32;34290;-78
2022/12/11 03:11:11;;;;;;;23.05;13.60;;;;;;;1.48;93.45;97752.37;4468268;32;33971;-75
2022/12/11 03:13:41;;;;;;;22.65;13.57;;;;;;;1.18;93.68;97748.88;4470256;32;33239;-76
2022/12/11 03:16:30;;;;;;;23.12;13.65;;;;;;;1.56;92.91;97752.00;4470090;32;33936;-76
2022/12/11 03:19:11;;;;;;;19.62;11.90;;;;;;;1.82;90.35;97758.59;4451351;32;34934;-74
2022/12/11 03:21:42;;;;;;;22.70;12.80;;;;;;;1.58;91.71;97764.06;4454284;32;33950;-77
2022/12/11 03:24:39;;;;;;;26.62;13.43;;;;;;;1.54;92.28;97756.78;4454583;32;33492;-75
2022/12/11 03:27:28;;;;;;;20.67;12.13;;;;;;;1.35;93.67;97769.50;4468244;32;33780;-78
2022/12/11 03:30:09;;;;;;;21.48;12.93;;;;;;;1.34;94.79;97752.69;4470021;32;35038;-78
2022/12/11 03:32:43;;;;;;;23.25;14.07;;;;;;;1.00;95.25;97749.06;4456011;32;33723;-79
2022/12/11 03:35:18;;;;;;;24.60;14.80;;;;;;;0.97;94.07;97749.53;4457851;32;33743;-78
2022/12/11 03:37:45;;;;;;;;;;;;;;;0.91;97.49;97751.28;4440710;32;33855;-77
2022/12/11 03:40:15;;;;;;;1.25;1.15;;;;;;;1.38;95.41;97732.44;4457743;32;34416;-79
2022/12/11 03:42:44;;;;;;;22.70;13.70;;;;;;;1.10;94.63;97738.59;4455920;32;34059;-77
2022/12/11 03:45:13;;;;;;;21.87;13.23;;;;;;;0.90;97.01;97754.19;4455904;32;33530;-77
2022/12/11 03:47:41;;;;;;;15.77;9.13;;;;;;;1.23;95.78;97764.19;4455942;32;33895;-77
2022/12/11 03:50:10;;;;;;;26.50;14.73;;;;;;;0.61;97.66;97762.94;4455424;32;34923;-76
2022/12/11 03:52:40;;;;;;;1.35;1.20;;;;;;;0.98;97.29;97759.16;4444784;32;32563;-78
2022/12/11 03:55:14;;;;;;;24.27;13.50;;;;;;;1.02;96.70;97769.13;4455652;32;33423;-78
2022/12/11 03:57:42;;;;;;;22.33;12.07;;;;;;;1.53;93.55;97768.50;4455863;32;33676;-78
2022/12/11 04:00:13;;;;;;;24.77;13.43;;;;;;;1.67;92.17;97774.38;4467900;32;34772;-78
2022/12/11 04:02:41;;;;;;;23.15;13.30;;;;;;;1.62;92.74;97775.06;4465919;32;34641;-78
2022/12/11 04:05:09;;;;;;;26.95;14.50;;;;;;;0.92;97.93;97795.63;4470070;32;34282;-80
2022/12/11 04:07:37;;;;;;;21.75;13.13;;;;;;;1.38;94.87;97783.22;4452360;32;34102;-78
2022/12/11 04:10:05;;;;;;;22.40;12.68;;;;;;;1.22;94.29;97790.09;4467896;32;34319;-77
2022/12/11 04:12:32;;;;;;;24.50;13.05;;;;;;;1.09;95.94;97787.69;4470064;32;34709;-77
2022/12/11 04:15:02;;;;;;;5.97;4.78;;;;;;;1.35;94.20;97786.34;4469690;32;33462;-80
2022/12/11 04:26:12;;;;;;;23.50;12.90;;;;;;;1.64;92.66;97786.34;4449517;32;33575;-79
2022/12/11 04:28:41;;;;;;;25.90;13.62;;;;;;;1.18;93.59;97791.63;4440044;32;33743;-78
2022/12/11 04:31:14;;;;;;;22.05;12.35;;;;;;;1.30;93.44;97796.13;4439769;32;34305;-79
2022/12/11 04:33:42;;;;;;;25.30;13.77;;;;;;;1.43;93.41;97803.88;4447045;32;34110;-79
2022/12/11 04:36:10;;;;;;;22.67;13.07;;;;;;;1.09;94.30;97795.72;4466403;32;33373;-79
2022/12/11 04:38:37;;;;;;;24.00;13.55;;;;;;;1.43;92.90;97801.19;4469245;32;33697;-80
2022/12/11 04:41:09;;;;;;;3.40;2.37;;;;;;;0.96;95.71;97807.47;4446194;32;34191;-79
2022/12/11 04:43:36;;;;;;;24.27;13.15;;;;;;;1.06;95.51;97798.03;4455433;32;34613;-78
2022/12/11 04:46:25;;;;;;;24.52;13.90;;;;;;;1.47;93.59;97806.87;4455410;32;33379;-79
2022/12/11 04:48:53;;;;;;;24.95;13.68;;;;;;;1.41;93.11;97814.78;4468705;32;33860;-80
2022/12/11 04:51:24;;;;;;;23.85;13.57;;;;;;;1.66;92.20;97820.87;4469341;32;33762;-79
2022/12/11 04:53:52;;;;;;;23.27;13.27;;;;;;;1.49;92.90;97824.31;4455562;32;33935;-80
2022/12/11 04:56:20;;;;;;;23.62;13.82;;;;;;;1.52;92.02;97820.34;4454228;32;33617;-79
2022/12/11 04:58:47;;;;;;;23.05;12.98;;;;;;;1.42;93.08;97826.28;4464071;32;34031;-77
2022/12/11 05:01:18;;;;;;;23.92;13.18;;;;;;;1.37;92.88;97840.34;4469126;32;35067;-80
2022/12/11 05:03:46;;;;;;;21.33;12.88;;;;;;;1.59;91.85;97842.38;4441898;32;33871;-77
2022/12/11 05:06:14;;;;;;;21.30;11.93;;;;;;;1.47;92.00;97836.25;4468344;32;33701;-78
2022/12/11 05:08:42;;;;;;;21.35;11.82;;;;;;;1.43;92.12;97843.97;4441728;32;33798;-78
2022/12/11 05:11:12;;;;;;;20.25;11.68;;;;;;;1.67;91.22;97846.56;4454225;32;34284;-77
2022/12/11 05:13:40;;;;;;;21.37;12.60;;;;;;;1.51;92.25;97846.25;4439820;32;33669;-78
2022/12/11 05:16:08;;;;;;;22.80;11.50;;;;;;;1.07;94.73;97847.75;4452349;32;34297;-79
2022/12/11 05:18:36;;;;;;;6.15;4.65;;;;;;;1.82;90.96;97850.31;4442868;32;34741;-80
2022/12/11 05:21:06;;;;;;;21.90;12.27;;;;;;;1.67;91.91;97850.03;4469101;32;34061;-80
2022/12/11 05:23:34;;;;;;;20.00;11.85;;;;;;;1.48;93.02;97856.59;4463162;32;34069;-79
2022/12/11 05:26:04;;;;;;;20.45;12.00;;;;;;;1.73;91.36;97862.47;4457103;32;34312;-77
2022/12/11 05:28:33;;;;;;;19.37;11.38;;;;;;;1.37;92.78;97859.06;4458021;32;34656;-77
2022/12/11 05:31:04;;;;;;;1.23;1.12;;;;;;;1.35;93.40;97847.78;4461757;32;35129;-79
2022/12/11 05:33:32;;;;;;;19.17;11.75;;;;;;;1.31;93.85;97840.50;4458304;32;34693;-79
2022/12/11 05:36:00;;;;;;;17.98;11.45;;;;;;;1.34;92.95;97845.34;4461118;32;33575;-80
2022/12/11 05:38:28;;;;;;;20.12;11.10;;;;;;;1.40;93.67;97852.44;4461495;32;33629;-79
2022/12/11 05:41:05;;;;;;;10.50;5.20;;;;;;;1.32;92.95;97845.59;4454616;32;34322;-76
2022/12/11 05:43:35;;;;;;;16.40;10.25;;;;;;;1.55;91.92;97857.28;4446479;32;34090;-79
2022/12/11 05:46:09;;;;;;;18.92;11.63;;;;;;;1.36;93.40;97849.44;4448583;32;34244;-78
2022/12/11 05:48:37;;;;;;;;;;;;;;;1.38;93.18;97863.38;4464945;32;33363;-78
2022/12/11 05:51:07;;;;;;;3.70;2.25;;;;;;;1.51;92.56;97845.44;4451476;32;34316;-77
2022/12/11 05:53:36;;;;;;;16.70;9.73;;;;;;;1.30;93.80;97860.25;4453739;32;34214;-79
2022/12/11 05:56:06;;;;;;;16.35;10.20;;;;;;;1.07;93.95;97861.91;4456680;32;33638;-79
2022/12/11 05:58:34;;;;;;;17.45;10.73;;;;;;;0.93;94.43;97857.84;4451002;32;33656;-78
2022/12/11 06:01:06;;;;;;;18.65;10.52;;;;;;;0.89;96.18;97867.37;4463082;32;34319;-78
2022/12/11 06:03:34;;;;;;;17.12;10.10;;;;;;;0.78;96.41;97872.47;4450218;32;33912;-78
2022/12/11 06:06:05;;;;;;;19.02;11.12;;;;;;;0.90;96.67;97879.66;4458995;32;34374;-77
2022/12/11 06:08:33;;;;;;;19.08;10.80;;;;;;;0.91;95.59;97883.97;4449301;32;34128;-76
2022/12/11 06:11:01;;;;;;;18.65;11.60;;;;;;;1.17;94.88;97890.69;4448630;32;35012;-77
2022/12/11 06:13:28;;;;;;;18.62;11.43;;;;;;;1.31;93.99;97893.94;4464119;32;33854;-75
2022/12/11 06:16:01;;;;;;;18.23;10.43;;;;;;;1.18;93.57;97903.81;4456197;32;33522;-75
2022/12/11 06:18:29;;;;;;;17.83;10.82;;;;;;;0.79;94.61;97891.97;4455583;32;33856;-75
2022/12/11 06:20:57;;;;;;;1.83;1.52;;;;;;;0.96;95.83;97922.28;4435833;32;32898;-73
2022/12/11 06:23:24;;;;;;;19.75;11.07;;;;;;;1.22;93.28;97910.31;4471049;32;34615;-79
2022/12/11 06:25:52;;;;;;;4.20;3.03;;;;;;;1.25;93.89;97918.91;4467193;32;33372;-84
2022/12/11 06:28:19;;;;;;;18.92;10.75;;;;;;;1.28;93.72;97921.13;4458670;32;34701;-72
2022/12/11 06:30:47;;;;;;;18.83;10.88;;;;;;;1.56;91.77;97920.37;4453598;32;33834;-78
2022/12/11 06:33:14;;;;;;;16.12;9.95;;;;;;;1.37;92.54;97947.25;4452405;32;34125;-81
2022/12/11 06:35:42;;;;;;;19.52;10.10;;;;;;;1.57;91.51;97935.34;4453679;32;33695;-81
2022/12/11 06:38:09;;;;;;;19.70;10.63;;;;;;;1.26;91.16;97945.38;4452411;32;33858;-80
2022/12/11 06:40:37;;;;;;;17.27;10.05;;;;;;;1.36;91.72;97947.47;4451929;32;34052;-85
2022/12/11 06:43:04;;;;;;;17.37;10.75;;;;;;;1.34;91.13;97939.69;4449677;32;33918;-85
2022/12/11 06:45:32;;;;;;;18.73;11.07;;;;;;;1.32;91.28;97960.50;4454940;32;32869;-79
2022/12/11 06:47:59;;;;;;;20.25;11.15;;;;;;;0.92;93.90;97945.13;4459802;32;34728;-79
2022/12/11 06:50:27;;;;;;;1.05;0.88;;;;;;;1.10;94.15;97949.59;4469163;32;34216;-84
2022/12/11 06:52:58;;;;;;;19.37;10.25;;;;;;;1.39;92.64;97955.03;4469141;32;33347;-77
2022/12/11 06:55:25;;;;;;;19.70;11.18;;;;;;;0.96;93.46;97961.53;4462499;32;34242;-78
2022/12/11 06:57:53;;;;;;;18.12;10.90;;;;;;;1.11;92.92;97959.22;4461263;32;33911;-70
2022/12/11 07:00:20;;;;;;;17.67;10.93;;;;;;;0.81;94.14;97962.75;4464764;32;35170;-82
2022/12/11 07:02:49;;;;;;;19.80;11.35;;;;;;;1.07;93.55;97951.91;4468631;32;33917;-80
2022/12/11 07:05:17;;;;;;;17.90;10.30;;;;;;;0.78;95.81;97967.78;4468920;32;34308;-82
2022/12/11 07:07:45;;;;;;;17.50;10.20;;;;;;;1.10;94.79;97956.75;4454391;32;33920;-82
2022/12/11 07:10:13;;;;;;;17.45;10.93;;;;;;;0.95;94.58;97960.72;4468140;32;34191;-72
2022/12/11 07:12:40;;;;;;;17.80;10.10;;;;;;;1.08;94.39;97951.66;4468522;32;34652;-83
2022/12/11 07:15:08;;;;;;;17.10;10.80;;;;;;;1.20;94.11;97959.66;4453593;32;33136;-78
2022/12/11 07:17:37;;;;;;;16.80;9.93;;;;;;;0.92;96.24;97963.81;4467223;32;33824;-80
2022/12/11 07:20:04;;;;;;;1.55;1.42;;;;;;;1.03;94.74;97956.88;4468820;32;34933;-79
2022/12/11 07:22:32;;;;;;;16.08;9.20;;;;;;;0.88;94.70;97962.66;4465214;32;33595;-74
2022/12/11 07:25:00;;;;;;;15.38;9.05;;;;;;;0.86;93.68;97959.41;4461493;32;33743;-73
2022/12/11 07:27:29;;;;;;;15.18;8.88;;;;;;;0.97;93.38;97963.12;4452863;32;33871;-73
2022/12/11 07:29:56;;;;;;;15.85;9.07;;;;;;;1.30;92.46;97969.78;4468784;32;33789;-73
2022/12/11 07:32:24;;;;;;;12.63;8.20;;;;;;;0.91;94.64;97974.75;4468722;32;33870;-73
2022/12/11 07:34:51;;;;;;;1.52;1.35;;;;;;;0.93;94.38;97969.97;4462601;32;34484;-74
2022/12/11 07:37:19;;;;;;;15.05;8.68;;;;;;;1.15;93.68;97975.59;4448532;32;34819;-74
2022/12/11 07:39:47;;;;;;;14.05;8.27;;;;;;;1.22;92.32;97976.28;4468044;32;35301;-76
2022/12/11 07:42:15;;;;;;;14.77;8.30;;;;;;;1.13;93.19;97986.50;4468385;32;33455;-74
2022/12/11 07:44:43;;;;;;;12.05;7.68;;;;;;;1.13;93.93;97994.50;4467531;32;33674;-75
2022/12/11 07:47:10;;;;;;;13.15;7.90;;;;;;;1.45;91.40;98018.22;4468790;32;34840;-76
2022/12/11 07:49:38;;;;;;;13.07;8.48;;;;;;;1.33;91.72;98004.03;4461793;32;34178;-76
2022/12/11 07:52:05;;;;;;;13.70;7.80;;;;;;;1.01;93.46;98017.72;4469003;32;33896;-82
2022/12/11 07:54:33;;;;;;;11.50;7.30;;;;;;;1.31;91.86;98031.00;4469919;32;33745;-76
2022/12/11 07:57:01;;;;;;;12.73;8.00;;;;;;;1.53;90.06;98027.75;4464832;32;33956;-74
2022/12/11 07:59:28;;;;;;;12.48;7.37;;;;;;;1.20;91.32;98027.25;4468963;32;33857;-77
2022/12/11 08:01:56;;;;;;;4.47;2.75;;;;;;;1.87;88.53;98036.78;4454904;32;33886;-78
2022/12/11 08:04:23;;;;;;;11.35;6.85;;;;;;;1.85;87.77;98038.88;4466317;32;33602;-73
2022/12/11 08:06:51;;;;;;;10.10;6.50;;;;;;;1.93;87.53;98056.44;4463940;32;35288;-75
2022/12/11 08:09:21;;;;;;;11.05;6.78;;;;;;;1.39;88.59;98044.00;4447284;32;33956;-74
2022/12/11 08:11:50;;;;;;;9.75;6.15;;;;;;;1.68;86.77;98067.38;4453896;32;34643;-75
2022/12/11 08:14:18;;;;;;;1.08;0.82;;;;;;;2.12;86.08;98081.19;4440032;32;33987;-76
2022/12/11 08:16:46;;;;;;;10.55;6.25;;;;;;;1.83;86.22;98073.88;4454640;32;34142;-84
2022/12/11 08:19:14;;;;;;;7.12;4.12;;;;;;;1.99;86.29;98088.41;4469740;32;34352;-76
2022/12/11 08:21:42;;;;;;;9.30;6.35;;;;;;;1.77;87.07;98096.22;4455141;32;34297;-75
2022/12/11 08:24:09;;;;;;;7.93;5.50;;;;;;;1.83;86.46;98089.91;4454348;32;34373;-86
2022/12/11 08:26:37;;;;;;;9.68;6.32;;;;;;;1.69;85.48;98093.88;4455553;32;33864;-88
2022/12/11 08:29:04;;;;;;;8.80;5.60;;;;;;;1.64;86.91;98105.28;4455183;32;34029;-75
2022/12/11 08:31:32;;;;;;;4.03;2.75;;;;;;;1.55;87.24;98098.62;4455429;32;33908;-82
2022/12/11 08:33:59;;;;;;;10.23;5.85;;;;;;;1.35;87.30;98108.84;4442903;32;32495;-76
2022/12/11 08:36:27;;;;;;;8.63;5.85;;;;;;;1.57;87.47;98106.44;4465353;32;33919;-75
2022/12/11 08:38:55;;;;;;;11.32;6.85;;;;;;;1.28;88.78;98121.50;4448012;32;34079;-75
2022/12/11 08:41:27;;;;;;;9.65;5.85;;;;;;;1.08;88.72;98130.59;4449388;32;34088;-70
2022/12/11 08:43:56;;;;;;;7.80;5.15;;;;;;;1.38;88.78;98135.94;4452402;32;33558;-75
2022/12/11 08:46:25;;;;;;;7.97;5.18;;;;;;;1.32;88.97;98130.66;4455053;32;34652;-81
2022/12/11 08:48:53;;;;;;;7.62;4.90;;;;;;;1.62;87.77;98139.44;4468761;32;34861;-75
2022/12/11 08:51:23;;;;;;;9.02;5.70;;;;;;;1.53;87.20;98134.66;4454493;32;33799;-84
2022/12/11 08:53:57;;;;;;;8.07;5.32;;;;;;;1.30;88.13;98135.44;4469358;32;33438;-83
2022/12/11 08:56:26;;;;;;;7.72;4.97;;;;;;;1.74;87.56;98134.09;4466314;32;34529;-84
2022/12/11 08:58:54;;;;;;;1.27;1.10;;;;;;;1.51;86.49;98139.41;4469213;32;33943;-73
2022/12/11 09:01:23;;;;;;;8.57;5.15;;;;;;;1.65;87.18;98148.87;4450405;32;33915;-80
2022/12/11 09:03:52;;;;;;;8.05;5.28;;;;;;;1.84;84.31;98150.41;4435921;32;33495;-78
2022/12/11 09:06:23;;;;;;;9.80;6.12;;;;;;;1.82;84.88;98146.31;4459101;32;34783;-76
2022/12/11 09:08:51;;;;;;;9.10;6.07;;;;;;;1.78;85.86;98134.47;4454211;32;33979;-79
2022/12/11 09:11:23;;;;;;;10.20;5.93;;;;;;;1.62;85.35;98147.47;4447844;32;34644;-84
2022/12/11 09:13:51;;;;;;;8.48;4.97;;;;;;;1.28;86.09;98132.19;4439037;32;33229;-81
2022/12/11 09:16:21;;;;;;;8.90;5.28;;;;;;;1.69;86.15;98131.31;4432232;32;33540;-76
2022/12/11 09:18:51;;;;;;;8.40;4.72;;;;;;;1.93;85.13;98150.88;4438873;32;34350;-77
2022/12/11 09:21:21;;;;;;;9.80;4.90;;;;;;;1.75;85.90;98149.13;4444808;32;34019;-77
2022/12/11 09:23:51;;;;;;;7.40;4.45;;;;;;;2.02;82.36;98156.69;4451258;32;33551;-78
2022/12/11 09:26:19;;;;;;;7.55;4.57;;;;;;;1.76;85.22;98158.75;4461263;32;33880;-76
2022/12/11 09:28:47;;;;;;;7.45;4.25;;;;;;;1.82;85.65;98162.38;4449921;32;35094;-77
2022/12/11 09:31:17;;;;;;;7.53;5.55;;;;;;;1.69;84.76;98162.59;4440851;32;33885;-76
2022/12/11 09:33:44;;;;;;;9.05;5.20;;;;;;;1.39;85.79;98158.09;4464495;32;33392;-76
2022/12/11 09:36:12;;;;;;;7.37;4.97;;;;;;;1.63;85.99;98169.66;4462242;32;34043;-77
2022/12/11 09:38:42;;;;;;;8.20;4.95;;;;;;;1.62;86.56;98173.38;4467974;32;34004;-78
2022/12/11 09:41:25;;;;;;;7.07;4.32;;;;;;;2.06;84.25;98160.53;4467528;32;33383;-77
2022/12/11 09:44:17;;;;;;;7.78;5.37;;;;;;;1.64;85.51;98166.75;4444127;32;33429;-80
2022/12/11 09:46:45;;;;;;;9.52;5.70;;;;;;;1.85;83.57;98165.38;4444341;32;33744;-76
2022/12/11 09:49:25;;;;;;;9.07;5.50;;;;;;;1.78;84.61;98156.66;4452277;32;34232;-79
2022/12/11 09:52:12;;;;;;;7.55;4.93;;;;;;;1.95;83.91;98159.47;4453241;32;32543;-78
2022/12/11 09:54:46;;;;;;;10.80;5.62;;;;;;;1.60;86.17;98143.41;4445370;32;32650;-76
2022/12/11 09:57:26;;;;;;;7.75;5.28;;;;;;;1.94;84.21;98133.75;4446497;32;34586;-77
2022/12/11 10:00:12;;;;;;;10.65;5.87;;;;;;;1.74;85.04;98127.94;4460362;32;34390;-77
2022/12/11 10:02:57;;;;;;;8.10;4.90;;;;;;;1.98;84.65;98128.75;4463980;32;35631;-75
2022/12/11 10:05:34;;;;;;;;;;;;;;;1.98;85.39;98121.53;4459697;32;33460;-76
2022/12/11 10:08:11;;;;;;;0.88;0.70;;;;;;;1.80;84.85;98117.13;4465033;32;34313;-75
2022/12/11 10:10:54;;;;;;;8.93;5.57;;;;;;;1.63;84.81;98125.03;4454790;32;34032;-73
2022/12/11 10:13:38;;;;;;;7.65;4.80;;;;;;;2.13;83.21;98123.75;4446750;32;33413;-74
2022/12/11 10:16:21;;;;;;;9.27;5.70;;;;;;;1.83;84.45;98142.59;4449332;32;34122;-76
2022/12/11 10:18:49;;;;;;;8.80;5.40;;;;;;;1.62;85.71;98146.63;4440713;32;33810;-75
2022/12/11 10:21:18;;;;;;;10.85;6.30;;;;;;;1.95;84.04;98142.63;4440375;32;34229;-73
2022/12/11 10:23:57;;;;;;;7.70;4.93;;;;;;;1.54;85.14;98155.00;4453399;32;33754;-74
2022/12/11 10:26:27;;;;;;;9.27;5.75;;;;;;;2.00;83.62;98151.56;4437925;32;33606;-74
2022/12/11 10:28:59;;;;;;;9.65;5.45;;;;;;;2.14;82.92;98165.53;4437715;32;33725;-74
2022/12/11 10:31:38;;;;;;;9.63;5.72;;;;;;;2.01;83.12;98141.69;4454377;32;33893;-74
2022/12/11 10:34:12;;;;;;;8.75;5.75;;;;;;;1.90;83.80;98154.00;4454049;32;34586;-75
2022/12/11 10:36:41;;;;;;;10.13;6.15;;;;;;;2.04;83.50;98147.38;4467685;32;33359;-74
2022/12/11 10:39:13;;;;;;;9.25;5.85;;;;;;;1.93;83.57;98152.72;4450546;32;34846;-81
2022/12/11 10:41:43;;;;;;;8.48;5.25;;;;;;;2.05;83.08;98156.19;4455757;32;34783;-81
2022/12/11 10:44:21;;;;;;;8.35;5.22;;;;;;;1.99;83.46;98171.34;4470112;32;34286;-81
2022/12/11 10:47:00;;;;;;;2.03;1.40;;;;;;;1.88;83.56;98179.34;4455919;32;33559;-79
2022/12/11 10:49:30;;;;;;;8.23;4.87;;;;;;;1.56;83.80;98161.75;4469617;32;33972;-76
2022/12/11 10:52:00;;;;;;;8.77;5.20;;;;;;;1.76;83.37;98174.00;4452899;32;33577;-82
2022/12/11 10:54:36;;;;;;;7.82;4.95;;;;;;;1.63;82.21;98162.44;4456040;32;34728;-74
2022/12/11 10:57:06;;;;;;;8.30;5.00;;;;;;;1.65;83.93;98183.62;4456323;32;33697;-75
2022/12/11 10:59:43;;;;;;;10.25;5.25;;;;;;;1.78;83.62;98175.38;4455539;32;34744;-77
2022/12/11 11:02:41;;;;;;;9.55;5.70;;;;;;;1.98;83.04;98171.56;4455551;32;33735;-73
2022/12/11 11:05:13;;;;;;;8.27;5.10;;;;;;;2.05;82.66;98182.94;4454955;32;33983;-76
2022/12/11 11:07:40;;;;;;;8.80;4.95;;;;;;;1.83;81.92;98182.69;4442772;32;32793;-76
2022/12/11 11:10:11;;;;;;;8.23;5.30;;;;;;;2.05;82.15;98174.94;4455475;32;33748;-77
2022/12/11 11:12:46;;;;;;;7.87;4.78;;;;;;;1.97;81.87;98176.09;4469671;32;34659;-74
2022/12/11 11:15:21;;;;;;;8.60;5.40;;;;;;;1.98;82.11;98168.88;4469958;32;33618;-73
2022/12/11 11:17:54;;;;;;;9.63;5.32;;;;;;;1.90;81.99;98162.03;4455743;32;33549;-75
2022/12/11 11:20:26;;;;;;;9.18;5.60;;;;;;;1.87;82.25;98164.34;4454675;32;34053;-75
2022/12/11 11:22:55;;;;;;;8.43;5.37;;;;;;;1.75;82.21;98162.47;4454170;32;33922;-75
2022/12/11 11:25:28;;;;;;;9.52;5.72;;;;;;;2.04;81.21;98165.28;4469855;32;33636;-75
2022/12/11 11:27:59;;;;;;;4.57;2.92;;;;;;;2.44;80.24;98161.88;4455527;32;34201;-74
2022/12/11 11:30:40;;;;;;;10.20;6.10;;;;;;;2.33;80.63;98170.72;4455489;32;34771;-75
2022/12/11 11:33:17;;;;;;;9.00;5.55;;;;;;;1.93;80.60;98163.44;4455321;32;35065;-74
2022/12/11 11:35:56;;;;;;;8.80;5.50;;;;;;;1.98;81.51;98174.22;4469821;32;34177;-77
2022/12/11 11:39:08;;;;;;;9.55;5.87;;;;;;;1.87;81.33;98177.72;4468494;32;32899;-77
2022/12/11 11:41:56;;;;;;;9.27;5.57;;;;;;;2.02;80.91;98178.87;4451776;32;33897;-77
2022/12/11 11:44:31;;;;;;;9.02;5.50;;;;;;;2.24;81.22;98189.00;4456023;32;34972;-77
2022/12/11 11:47:09;;;;;;;9.27;5.25;;;;;;;2.09;80.54;98188.66;4455766;32;33849;-76
2022/12/11 11:49:53;;;;;;;9.77;5.87;;;;;;;2.20;80.23;98185.16;4443448;32;33613;-77
2022/12/11 11:52:26;;;;;;;11.02;6.03;;;;;;;2.28;80.25;98186.69;4452716;32;34191;-76
2022/12/11 11:55:02;;;;;;;9.82;5.60;;;;;;;1.95;81.58;98190.75;4467255;32;34838;-77
2022/12/11 11:57:47;;;;;;;9.02;5.95;;;;;;;2.05;80.92;98199.84;4427374;32;33838;-80
2022/12/11 12:00:24;;;;;;;8.52;5.37;;;;;;;2.14;79.17;98196.78;4439258;32;33484;-75